Manning, SC

10:56 AM EST on November 23, 2014 (GMT -0500)
Dingle Pond | Change Station
CLOSE
Current Station
Personal Weather Station
Location: Summerton, SC
Elevation: 95 ft
Nearby Weather Stations

Elev 95 ft 33.51 °N, 80.41 °W | Updated 1 second ago

Rain
Rain
59.2 °F
Feels Like 59.2 °F
N
9.8
Wind Variable Wind from NW
Gusts 10.7 mph

Today
High -- | Low -- °F
--% Chance of Precip.
Yesterday
High -- | Low -- °F
Precip. -- in
6:59 AM 5:14 PM
New Moon, 2% visible
Pressure 30.11 in
Visibility 10.0 miles
Clouds Scattered Clouds 900 ft
Mostly Cloudy 4800 ft
Overcast 10000 ft
Dew Point 59 °F
Humidity 99%
Rainfall 0.72 in
Snow Depth Not available.
UV 1 out of 12
Pollen .40 out of 12
Air Quality Not available.
Flu Activity Not available.
METAR KCKI 231535Z AUTO 08009G14KT 10SM RA SCT009 BKN048 OVC100 16/16 A3011 RMK AO2 P0002

More Conditions Fewer Conditions

Pressure 30.11 in
Visibility 10.0 miles
Clouds Scattered Clouds 900 ft
Mostly Cloudy 4800 ft
Overcast 10000 ft
Dew Point 59 °F
Humidity 99%
Rainfall 0.72 in
Snow Depth Not available.
UV 1 out of 12
Pollen .40 out of 12
Air Quality Not available.
Flu Activity Not available.
METAR KCKI 231535Z AUTO 08009G14KT 10SM RA SCT009 BKN048 OVC100 16/16 A3011 RMK AO2 P0002

More Conditions Fewer Conditions

10-Day Weather Forecast

Almanac

Astronomy

Nov. 23, 2014 Rise Set
Actual Time
Civil Twilight
Nautical Twilight
Astronomical Twilight
Moon
Length of Visible Light
Length of Day
Tomorrow will be .
, % of the Moon is Illuminated

Today's Extremes

State Highs State Lows

Community

WunderPhotos

Upload Photos

1,773,082 photos uploaded!

WunderBlogs® & News

Nearby

Air Quality

  Air Quality AQ Index Pollutant
Not available.

Snow Depth

Station Depth Elevation

Earthquake Activity

City Distance Mag. Time & Date
Minimum magnitude displayed is 2.5.

Coastal Water Temperatures

Place Temperature

Nearby Weather Stations